sensor_id;sensor_type;location;lat;lon;timestamp;P1;durP1;ratioP1;P2;durP2;ratioP2
12852;SDS011;6495;51.808;7.478;2024-02-21T00:00:51;10.52;;;5.72;;
12852;SDS011;6495;51.808;7.478;2024-02-21T00:03:27;15.02;;;6.70;;
12852;SDS011;6495;51.808;7.478;2024-02-21T00:05:57;15.48;;;5.47;;
12852;SDS011;6495;51.808;7.478;2024-02-21T00:08:36;15.75;;;6.32;;
12852;SDS011;6495;51.808;7.478;2024-02-21T00:11:25;12.55;;;6.43;;
12852;SDS011;6495;51.808;7.478;2024-02-21T00:14:05;14.18;;;7.30;;
12852;SDS011;6495;51.808;7.478;2024-02-21T00:16:45;15.13;;;7.22;;
12852;SDS011;6495;51.808;7.478;2024-02-21T00:19:33;12.98;;;6.65;;
12852;SDS011;6495;51.808;7.478;2024-02-21T00:22:25;12.65;;;6.20;;
12852;SDS011;6495;51.808;7.478;2024-02-21T00:25:02;15.40;;;6.63;;
12852;SDS011;6495;51.808;7.478;2024-02-21T00:27:42;19.92;;;6.90;;
12852;SDS011;6495;51.808;7.478;2024-02-21T00:30:20;12.52;;;5.90;;
12852;SDS011;6495;51.808;7.478;2024-02-21T00:32:58;17.38;;;7.50;;
12852;SDS011;6495;51.808;7.478;2024-02-21T00:35:32;13.52;;;6.68;;
12852;SDS011;6495;51.808;7.478;2024-02-21T00:38:05;12.45;;;6.25;;
12852;SDS011;6495;51.808;7.478;2024-02-21T00:40:41;14.38;;;7.13;;
12852;SDS011;6495;51.808;7.478;2024-02-21T00:43:38;16.15;;;7.18;;
12852;SDS011;6495;51.808;7.478;2024-02-21T00:46:08;18.40;;;7.13;;
12852;SDS011;6495;51.808;7.478;2024-02-21T00:48:39;15.90;;;7.55;;
12852;SDS011;6495;51.808;7.478;2024-02-21T00:51:13;15.25;;;8.10;;
12852;SDS011;6495;51.808;7.478;2024-02-21T00:53:48;16.13;;;7.57;;
12852;SDS011;6495;51.808;7.478;2024-02-21T00:56:27;20.30;;;7.38;;
12852;SDS011;6495;51.808;7.478;2024-02-21T00:58:56;19.92;;;7.68;;
12852;SDS011;6495;51.808;7.478;2024-02-21T01:01:33;16.52;;;7.88;;
12852;SDS011;6495;51.808;7.478;2024-02-21T01:04:05;14.93;;;6.65;;
12852;SDS011;6495;51.808;7.478;2024-02-21T01:06:36;16.60;;;7.85;;
12852;SDS011;6495;51.808;7.478;2024-02-21T01:09:14;15.75;;;7.72;;
12852;SDS011;6495;51.808;7.478;2024-02-21T01:11:49;17.52;;;7.32;;
12852;SDS011;6495;51.808;7.478;2024-02-21T01:14:18;19.00;;;7.65;;
12852;SDS011;6495;51.808;7.478;2024-02-21T01:16:47;15.60;;;8.18;;
12852;SDS011;6495;51.808;7.478;2024-02-21T01:19:17;16.27;;;8.15;;
12852;SDS011;6495;51.808;7.478;2024-02-21T01:21:46;13.32;;;7.70;;
12852;SDS011;6495;51.808;7.478;2024-02-21T01:24:19;20.52;;;7.82;;
12852;SDS011;6495;51.808;7.478;2024-02-21T01:26:50;14.30;;;7.57;;
12852;SDS011;6495;51.808;7.478;2024-02-21T01:29:18;11.80;;;7.38;;
12852;SDS011;6495;51.808;7.478;2024-02-21T01:31:47;17.42;;;7.40;;
12852;SDS011;6495;51.808;7.478;2024-02-21T01:34:16;17.45;;;7.25;;
12852;SDS011;6495;51.808;7.478;2024-02-21T01:36:50;18.25;;;7.65;;
12852;SDS011;6495;51.808;7.478;2024-02-21T01:39:24;15.68;;;7.88;;
12852;SDS011;6495;51.808;7.478;2024-02-21T01:41:54;14.68;;;6.65;;
12852;SDS011;6495;51.808;7.478;2024-02-21T01:44:23;18.83;;;7.18;;
12852;SDS011;6495;51.808;7.478;2024-02-21T01:46:55;14.93;;;7.40;;
12852;SDS011;6495;51.808;7.478;2024-02-21T01:49:29;14.68;;;7.70;;
12852;SDS011;6495;51.808;7.478;2024-02-21T01:52:02;15.52;;;6.93;;
12852;SDS011;6495;51.808;7.478;2024-02-21T01:54:42;16.20;;;6.60;;
12852;SDS011;6495;51.808;7.478;2024-02-21T01:57:16;12.32;;;6.65;;
12852;SDS011;6495;51.808;7.478;2024-02-21T01:59:49;14.98;;;7.65;;
12852;SDS011;6495;51.808;7.478;2024-02-21T02:02:18;21.52;;;7.07;;
12852;SDS011;6495;51.808;7.478;2024-02-21T02:04:51;17.67;;;6.90;;
12852;SDS011;6495;51.808;7.478;2024-02-21T02:07:30;13.75;;;6.90;;
12852;SDS011;6495;51.808;7.478;2024-02-21T02:10:02;17.27;;;7.78;;
12852;SDS011;6495;51.808;7.478;2024-02-21T02:12:42;12.25;;;5.70;;
12852;SDS011;6495;51.808;7.478;2024-02-21T02:15:12;13.75;;;6.30;;
12852;SDS011;6495;51.808;7.478;2024-02-21T02:17:45;19.63;;;7.15;;
12852;SDS011;6495;51.808;7.478;2024-02-21T02:20:15;14.52;;;7.20;;
12852;SDS011;6495;51.808;7.478;2024-02-21T02:22:47;14.88;;;6.70;;
12852;SDS011;6495;51.808;7.478;2024-02-21T02:25:29;16.70;;;6.75;;
12852;SDS011;6495;51.808;7.478;2024-02-21T02:28:06;13.75;;;6.72;;
12852;SDS011;6495;51.808;7.478;2024-02-21T02:30:38;16.67;;;6.80;;
12852;SDS011;6495;51.808;7.478;2024-02-21T02:33:14;11.85;;;6.00;;
12852;SDS011;6495;51.808;7.478;2024-02-21T02:35:52;16.65;;;6.80;;
12852;SDS011;6495;51.808;7.478;2024-02-21T02:38:31;19.05;;;6.82;;
12852;SDS011;6495;51.808;7.478;2024-02-21T02:41:03;11.85;;;5.97;;
12852;SDS011;6495;51.808;7.478;2024-02-21T02:43:32;13.13;;;5.65;;
12852;SDS011;6495;51.808;7.478;2024-02-21T02:46:07;18.67;;;7.07;;
12852;SDS011;6495;51.808;7.478;2024-02-21T02:48:41;12.35;;;6.88;;
12852;SDS011;6495;51.808;7.478;2024-02-21T02:51:11;16.10;;;6.82;;
12852;SDS011;6495;51.808;7.478;2024-02-21T02:53:54;15.63;;;6.40;;
12852;SDS011;6495;51.808;7.478;2024-02-21T02:56:26;14.20;;;6.22;;
12852;SDS011;6495;51.808;7.478;2024-02-21T02:59:02;13.63;;;6.30;;
12852;SDS011;6495;51.808;7.478;2024-02-21T03:01:34;19.45;;;7.07;;
12852;SDS011;6495;51.808;7.478;2024-02-21T03:04:03;16.35;;;5.85;;
12852;SDS011;6495;51.808;7.478;2024-02-21T03:06:35;15.35;;;5.75;;
12852;SDS011;6495;51.808;7.478;2024-02-21T03:09:04;13.18;;;6.32;;
12852;SDS011;6495;51.808;7.478;2024-02-21T03:11:42;11.35;;;4.70;;
12852;SDS011;6495;51.808;7.478;2024-02-21T03:14:14;14.50;;;5.88;;
12852;SDS011;6495;51.808;7.478;2024-02-21T03:16:43;13.38;;;6.30;;
12852;SDS011;6495;51.808;7.478;2024-02-21T03:19:14;13.25;;;5.97;;
12852;SDS011;6495;51.808;7.478;2024-02-21T03:21:43;12.25;;;5.75;;
12852;SDS011;6495;51.808;7.478;2024-02-21T03:24:19;13.10;;;5.20;;
12852;SDS011;6495;51.808;7.478;2024-02-21T03:26:51;12.25;;;5.38;;
12852;SDS011;6495;51.808;7.478;2024-02-21T03:29:21;9.05;;;5.47;;
12852;SDS011;6495;51.808;7.478;2024-02-21T03:31:53;8.40;;;4.88;;
12852;SDS011;6495;51.808;7.478;2024-02-21T03:34:26;10.30;;;5.13;;
12852;SDS011;6495;51.808;7.478;2024-02-21T03:36:56;12.90;;;6.28;;
12852;SDS011;6495;51.808;7.478;2024-02-21T03:39:27;10.77;;;5.13;;
12852;SDS011;6495;51.808;7.478;2024-02-21T03:42:02;10.43;;;5.68;;
12852;SDS011;6495;51.808;7.478;2024-02-21T03:44:32;10.85;;;5.63;;
12852;SDS011;6495;51.808;7.478;2024-02-21T03:47:04;11.13;;;5.72;;
12852;SDS011;6495;51.808;7.478;2024-02-21T03:49:33;12.20;;;5.38;;
12852;SDS011;6495;51.808;7.478;2024-02-21T03:52:09;9.48;;;5.07;;
12852;SDS011;6495;51.808;7.478;2024-02-21T03:54:41;17.08;;;5.60;;
12852;SDS011;6495;51.808;7.478;2024-02-21T03:57:16;11.98;;;4.85;;
12852;SDS011;6495;51.808;7.478;2024-02-21T03:59:45;11.60;;;5.35;;
12852;SDS011;6495;51.808;7.478;2024-02-21T04:02:14;16.75;;;5.18;;
12852;SDS011;6495;51.808;7.478;2024-02-21T04:04:47;14.15;;;4.85;;
12852;SDS011;6495;51.808;7.478;2024-02-21T04:07:19;13.48;;;5.20;;
12852;SDS011;6495;51.808;7.478;2024-02-21T04:09:51;8.75;;;4.53;;
12852;SDS011;6495;51.808;7.478;2024-02-21T04:12:21;13.90;;;5.40;;
12852;SDS011;6495;51.808;7.478;2024-02-21T04:14:51;9.55;;;4.70;;
12852;SDS011;6495;51.808;7.478;2024-02-21T04:17:23;11.90;;;5.30;;
12852;SDS011;6495;51.808;7.478;2024-02-21T04:20:04;7.22;;;4.65;;
12852;SDS011;6495;51.808;7.478;2024-02-21T04:22:37;8.25;;;5.05;;
12852;SDS011;6495;51.808;7.478;2024-02-21T04:25:07;15.35;;;5.80;;
12852;SDS011;6495;51.808;7.478;2024-02-21T04:27:47;14.60;;;5.47;;
12852;SDS011;6495;51.808;7.478;2024-02-21T04:30:19;9.63;;;5.28;;
12852;SDS011;6495;51.808;7.478;2024-02-21T04:32:51;11.30;;;5.05;;
12852;SDS011;6495;51.808;7.478;2024-02-21T04:35:22;9.93;;;5.00;;
12852;SDS011;6495;51.808;7.478;2024-02-21T04:38:01;8.88;;;5.05;;
12852;SDS011;6495;51.808;7.478;2024-02-21T04:40:32;9.20;;;4.28;;
12852;SDS011;6495;51.808;7.478;2024-02-21T04:43:08;8.90;;;4.40;;
12852;SDS011;6495;51.808;7.478;2024-02-21T04:45:40;8.93;;;4.50;;
12852;SDS011;6495;51.808;7.478;2024-02-21T04:48:21;9.45;;;4.53;;
12852;SDS011;6495;51.808;7.478;2024-02-21T04:50:53;9.80;;;4.47;;
12852;SDS011;6495;51.808;7.478;2024-02-21T04:53:40;7.63;;;4.68;;
12852;SDS011;6495;51.808;7.478;2024-02-21T04:56:14;9.40;;;4.57;;
12852;SDS011;6495;51.808;7.478;2024-02-21T04:58:50;7.90;;;4.97;;
12852;SDS011;6495;51.808;7.478;2024-02-21T05:01:41;11.38;;;5.32;;
12852;SDS011;6495;51.808;7.478;2024-02-21T05:05:48;9.63;;;4.13;;
12852;SDS011;6495;51.808;7.478;2024-02-21T05:08:24;8.45;;;5.13;;
12852;SDS011;6495;51.808;7.478;2024-02-21T05:10:56;13.23;;;5.18;;
12852;SDS011;6495;51.808;7.478;2024-02-21T05:13:25;10.82;;;4.97;;
12852;SDS011;6495;51.808;7.478;2024-02-21T05:15:55;9.35;;;5.07;;
12852;SDS011;6495;51.808;7.478;2024-02-21T05:18:23;12.05;;;5.30;;
12852;SDS011;6495;51.808;7.478;2024-02-21T05:20:52;14.63;;;5.65;;
12852;SDS011;6495;51.808;7.478;2024-02-21T05:23:20;9.05;;;5.38;;
12852;SDS011;6495;51.808;7.478;2024-02-21T05:25:48;15.07;;;5.15;;
12852;SDS011;6495;51.808;7.478;2024-02-21T05:29:00;9.85;;;4.82;;
12852;SDS011;6495;51.808;7.478;2024-02-21T05:31:42;9.57;;;4.97;;
12852;SDS011;6495;51.808;7.478;2024-02-21T05:34:23;11.07;;;5.35;;
12852;SDS011;6495;51.808;7.478;2024-02-21T05:40:46;10.07;;;4.82;;
12852;SDS011;6495;51.808;7.478;2024-02-21T05:48:02;9.90;;;4.47;;
12852;SDS011;6495;51.808;7.478;2024-02-21T05:50:38;13.07;;;5.13;;
12852;SDS011;6495;51.808;7.478;2024-02-21T05:53:14;8.25;;;4.75;;
12852;SDS011;6495;51.808;7.478;2024-02-21T05:55:53;10.77;;;4.82;;
12852;SDS011;6495;51.808;7.478;2024-02-21T05:58:28;10.85;;;5.22;;
12852;SDS011;6495;51.808;7.478;2024-02-21T06:01:08;12.75;;;4.68;;
12852;SDS011;6495;51.808;7.478;2024-02-21T06:03:42;14.57;;;4.93;;
12852;SDS011;6495;51.808;7.478;2024-02-21T06:06:15;11.23;;;4.70;;
12852;SDS011;6495;51.808;7.478;2024-02-21T06:08:48;7.70;;;4.90;;
12852;SDS011;6495;51.808;7.478;2024-02-21T06:11:19;8.30;;;4.95;;
12852;SDS011;6495;51.808;7.478;2024-02-21T06:13:54;11.98;;;4.80;;
12852;SDS011;6495;51.808;7.478;2024-02-21T06:16:23;11.07;;;4.63;;
12852;SDS011;6495;51.808;7.478;2024-02-21T06:19:10;11.10;;;4.80;;
12852;SDS011;6495;51.808;7.478;2024-02-21T06:21:44;10.05;;;4.30;;
12852;SDS011;6495;51.808;7.478;2024-02-21T06:24:21;8.90;;;3.88;;
12852;SDS011;6495;51.808;7.478;2024-02-21T06:26:50;8.25;;;4.00;;
12852;SDS011;6495;51.808;7.478;2024-02-21T06:29:18;9.50;;;4.22;;
12852;SDS011;6495;51.808;7.478;2024-02-21T06:31:47;10.43;;;5.32;;
12852;SDS011;6495;51.808;7.478;2024-02-21T06:34:17;7.75;;;2.95;;
12852;SDS011;6495;51.808;7.478;2024-02-21T06:36:50;9.50;;;3.28;;
12852;SDS011;6495;51.808;7.478;2024-02-21T06:39:19;10.55;;;3.97;;
12852;SDS011;6495;51.808;7.478;2024-02-21T06:41:49;6.65;;;4.28;;
12852;SDS011;6495;51.808;7.478;2024-02-21T06:44:20;8.07;;;4.10;;
12852;SDS011;6495;51.808;7.478;2024-02-21T06:46:49;6.35;;;3.17;;
12852;SDS011;6495;51.808;7.478;2024-02-21T06:49:19;10.48;;;4.18;;
12852;SDS011;6495;51.808;7.478;2024-02-21T06:51:48;6.55;;;3.80;;
12852;SDS011;6495;51.808;7.478;2024-02-21T06:54:17;11.80;;;3.50;;
12852;SDS011;6495;51.808;7.478;2024-02-21T07:11:07;5.97;;;3.22;;
12852;SDS011;6495;51.808;7.478;2024-02-21T07:13:36;5.03;;;3.30;;
12852;SDS011;6495;51.808;7.478;2024-02-21T07:16:04;7.30;;;3.75;;
12852;SDS011;6495;51.808;7.478;2024-02-21T07:18:34;9.82;;;4.15;;
12852;SDS011;6495;51.808;7.478;2024-02-21T07:21:03;6.80;;;2.97;;
12852;SDS011;6495;51.808;7.478;2024-02-21T07:23:31;6.93;;;3.40;;
12852;SDS011;6495;51.808;7.478;2024-02-21T07:26:00;5.13;;;3.40;;
12852;SDS011;6495;51.808;7.478;2024-02-21T07:28:33;5.53;;;3.03;;
12852;SDS011;6495;51.808;7.478;2024-02-21T07:31:03;7.70;;;3.40;;
12852;SDS011;6495;51.808;7.478;2024-02-21T07:33:32;6.00;;;3.35;;
12852;SDS011;6495;51.808;7.478;2024-02-21T07:36:05;6.25;;;3.00;;
12852;SDS011;6495;51.808;7.478;2024-02-21T07:38:42;13.02;;;4.22;;
12852;SDS011;6495;51.808;7.478;2024-02-21T07:41:12;6.05;;;3.05;;
12852;SDS011;6495;51.808;7.478;2024-02-21T07:43:45;5.68;;;3.05;;
12852;SDS011;6495;51.808;7.478;2024-02-21T07:53:19;5.35;;;2.85;;
12852;SDS011;6495;51.808;7.478;2024-02-21T07:56:07;5.68;;;3.17;;
12852;SDS011;6495;51.808;7.478;2024-02-21T07:58:52;5.80;;;2.97;;
12852;SDS011;6495;51.808;7.478;2024-02-21T08:01:30;8.30;;;2.95;;
12852;SDS011;6495;51.808;7.478;2024-02-21T08:03:59;8.60;;;3.90;;
12852;SDS011;6495;51.808;7.478;2024-02-21T08:06:29;5.68;;;3.25;;
12852;SDS011;6495;51.808;7.478;2024-02-21T08:08:57;6.78;;;3.13;;
12852;SDS011;6495;51.808;7.478;2024-02-21T08:11:27;5.07;;;3.35;;
12852;SDS011;6495;51.808;7.478;2024-02-21T08:13:57;7.45;;;2.83;;
12852;SDS011;6495;51.808;7.478;2024-02-21T08:16:26;5.95;;;2.72;;
12852;SDS011;6495;51.808;7.478;2024-02-21T08:18:54;4.75;;;3.10;;
12852;SDS011;6495;51.808;7.478;2024-02-21T08:21:24;7.25;;;2.60;;
12852;SDS011;6495;51.808;7.478;2024-02-21T08:23:52;5.35;;;3.45;;
12852;SDS011;6495;51.808;7.478;2024-02-21T08:26:20;7.57;;;2.85;;
12852;SDS011;6495;51.808;7.478;2024-02-21T08:28:49;5.18;;;2.80;;
12852;SDS011;6495;51.808;7.478;2024-02-21T08:31:22;6.78;;;2.70;;
12852;SDS011;6495;51.808;7.478;2024-02-21T08:33:51;8.40;;;2.95;;
12852;SDS011;6495;51.808;7.478;2024-02-21T08:36:19;6.45;;;2.80;;
12852;SDS011;6495;51.808;7.478;2024-02-21T08:38:48;8.25;;;3.40;;
12852;SDS011;6495;51.808;7.478;2024-02-21T08:41:17;4.32;;;2.58;;
12852;SDS011;6495;51.808;7.478;2024-02-21T08:43:45;5.75;;;2.75;;
12852;SDS011;6495;51.808;7.478;2024-02-21T08:46:13;13.23;;;3.55;;
12852;SDS011;6495;51.808;7.478;2024-02-21T08:48:45;5.32;;;3.08;;
12852;SDS011;6495;51.808;7.478;2024-02-21T08:51:13;5.47;;;3.03;;
12852;SDS011;6495;51.808;7.478;2024-02-21T08:53:42;5.95;;;2.83;;
12852;SDS011;6495;51.808;7.478;2024-02-21T08:56:11;9.45;;;3.85;;
12852;SDS011;6495;51.808;7.478;2024-02-21T08:58:40;9.23;;;2.95;;
12852;SDS011;6495;51.808;7.478;2024-02-21T09:01:09;7.13;;;3.22;;
12852;SDS011;6495;51.808;7.478;2024-02-21T09:03:37;5.88;;;2.97;;
12852;SDS011;6495;51.808;7.478;2024-02-21T09:06:11;5.55;;;2.63;;
12852;SDS011;6495;51.808;7.478;2024-02-21T09:08:40;5.25;;;2.83;;
12852;SDS011;6495;51.808;7.478;2024-02-21T09:11:09;7.10;;;2.90;;
12852;SDS011;6495;51.808;7.478;2024-02-21T09:13:37;7.72;;;3.17;;
12852;SDS011;6495;51.808;7.478;2024-02-21T09:16:06;5.43;;;3.28;;
12852;SDS011;6495;51.808;7.478;2024-02-21T09:18:35;5.90;;;2.97;;
12852;SDS011;6495;51.808;7.478;2024-02-21T09:21:04;6.28;;;3.05;;
12852;SDS011;6495;51.808;7.478;2024-02-21T09:23:34;6.40;;;2.67;;
12852;SDS011;6495;51.808;7.478;2024-02-21T09:26:02;4.93;;;2.75;;
12852;SDS011;6495;51.808;7.478;2024-02-21T09:28:31;7.05;;;3.05;;
12852;SDS011;6495;51.808;7.478;2024-02-21T09:31:01;7.57;;;3.75;;
12852;SDS011;6495;51.808;7.478;2024-02-21T09:33:29;5.40;;;2.85;;
12852;SDS011;6495;51.808;7.478;2024-02-21T09:35:59;4.90;;;2.72;;
12852;SDS011;6495;51.808;7.478;2024-02-21T09:38:27;4.35;;;2.83;;
12852;SDS011;6495;51.808;7.478;2024-02-21T09:40:58;6.95;;;2.72;;
12852;SDS011;6495;51.808;7.478;2024-02-21T09:43:31;5.13;;;2.85;;
12852;SDS011;6495;51.808;7.478;2024-02-21T09:46:02;2.92;;;2.30;;
12852;SDS011;6495;51.808;7.478;2024-02-21T09:48:35;6.30;;;2.65;;
12852;SDS011;6495;51.808;7.478;2024-02-21T09:51:22;7.90;;;2.47;;
12852;SDS011;6495;51.808;7.478;2024-02-21T09:53:54;5.97;;;2.70;;
12852;SDS011;6495;51.808;7.478;2024-02-21T09:56:42;5.70;;;2.80;;
12852;SDS011;6495;51.808;7.478;2024-02-21T09:59:14;4.15;;;2.15;;
12852;SDS011;6495;51.808;7.478;2024-02-21T10:01:44;4.90;;;2.83;;
12852;SDS011;6495;51.808;7.478;2024-02-21T10:04:42;8.02;;;2.55;;
12852;SDS011;6495;51.808;7.478;2024-02-21T10:07:11;7.80;;;3.47;;
12852;SDS011;6495;51.808;7.478;2024-02-21T10:09:40;7.32;;;2.65;;
12852;SDS011;6495;51.808;7.478;2024-02-21T10:12:13;6.28;;;2.55;;
12852;SDS011;6495;51.808;7.478;2024-02-21T10:14:45;3.65;;;2.47;;
12852;SDS011;6495;51.808;7.478;2024-02-21T10:17:15;8.07;;;2.55;;
12852;SDS011;6495;51.808;7.478;2024-02-21T10:19:45;2.63;;;1.80;;
12852;SDS011;6495;51.808;7.478;2024-02-21T10:22:14;3.92;;;1.52;;
12852;SDS011;6495;51.808;7.478;2024-02-21T10:24:45;3.40;;;2.10;;
12852;SDS011;6495;51.808;7.478;2024-02-21T10:27:14;2.40;;;1.95;;
12852;SDS011;6495;51.808;7.478;2024-02-21T10:29:42;4.72;;;1.80;;
12852;SDS011;6495;51.808;7.478;2024-02-21T10:32:18;4.05;;;2.03;;
12852;SDS011;6495;51.808;7.478;2024-02-21T10:34:46;4.10;;;2.00;;
12852;SDS011;6495;51.808;7.478;2024-02-21T10:37:18;4.93;;;2.17;;
12852;SDS011;6495;51.808;7.478;2024-02-21T10:39:49;2.35;;;1.55;;
12852;SDS011;6495;51.808;7.478;2024-02-21T10:42:20;4.47;;;1.95;;
12852;SDS011;6495;51.808;7.478;2024-02-21T10:44:50;3.28;;;2.15;;
12852;SDS011;6495;51.808;7.478;2024-02-21T10:47:19;4.38;;;2.60;;
12852;SDS011;6495;51.808;7.478;2024-02-21T10:50:03;4.28;;;2.67;;
12852;SDS011;6495;51.808;7.478;2024-02-21T10:52:37;8.70;;;3.03;;
12852;SDS011;6495;51.808;7.478;2024-02-21T10:55:20;5.88;;;2.85;;
12852;SDS011;6495;51.808;7.478;2024-02-21T10:58:00;5.68;;;3.03;;
12852;SDS011;6495;51.808;7.478;2024-02-21T11:00:30;5.57;;;3.13;;
12852;SDS011;6495;51.808;7.478;2024-02-21T11:03:01;9.38;;;3.28;;
12852;SDS011;6495;51.808;7.478;2024-02-21T11:05:31;9.30;;;2.90;;
12852;SDS011;6495;51.808;7.478;2024-02-21T11:08:02;6.38;;;3.15;;
12852;SDS011;6495;51.808;7.478;2024-02-21T11:10:36;9.57;;;3.53;;
12852;SDS011;6495;51.808;7.478;2024-02-21T11:13:09;7.60;;;3.05;;
12852;SDS011;6495;51.808;7.478;2024-02-21T11:15:44;5.32;;;2.50;;
12852;SDS011;6495;51.808;7.478;2024-02-21T11:18:22;7.57;;;2.65;;
12852;SDS011;6495;51.808;7.478;2024-02-21T11:20:51;5.43;;;2.85;;
12852;SDS011;6495;51.808;7.478;2024-02-21T11:23:24;4.97;;;2.60;;
12852;SDS011;6495;51.808;7.478;2024-02-21T11:26:03;6.03;;;2.60;;
12852;SDS011;6495;51.808;7.478;2024-02-21T11:28:35;5.55;;;2.47;;
12852;SDS011;6495;51.808;7.478;2024-02-21T11:31:07;7.55;;;3.20;;
12852;SDS011;6495;51.808;7.478;2024-02-21T11:33:40;8.30;;;2.80;;
12852;SDS011;6495;51.808;7.478;2024-02-21T11:36:09;3.53;;;2.70;;
12852;SDS011;6495;51.808;7.478;2024-02-21T11:38:38;5.25;;;3.03;;
12852;SDS011;6495;51.808;7.478;2024-02-21T11:41:07;6.05;;;2.78;;
12852;SDS011;6495;51.808;7.478;2024-02-21T11:43:42;4.65;;;2.72;;
12852;SDS011;6495;51.808;7.478;2024-02-21T11:46:10;4.20;;;2.58;;
12852;SDS011;6495;51.808;7.478;2024-02-21T11:48:38;7.95;;;2.58;;
12852;SDS011;6495;51.808;7.478;2024-02-21T11:51:09;4.97;;;3.17;;
12852;SDS011;6495;51.808;7.478;2024-02-21T11:53:38;8.02;;;2.80;;
12852;SDS011;6495;51.808;7.478;2024-02-21T11:56:22;3.22;;;1.92;;
12852;SDS011;6495;51.808;7.478;2024-02-21T11:58:53;3.92;;;2.33;;
12852;SDS011;6495;51.808;7.478;2024-02-21T12:01:22;4.43;;;2.55;;
12852;SDS011;6495;51.808;7.478;2024-02-21T12:03:50;6.13;;;2.60;;
12852;SDS011;6495;51.808;7.478;2024-02-21T12:06:19;4.28;;;2.05;;
12852;SDS011;6495;51.808;7.478;2024-02-21T12:08:49;3.42;;;2.58;;
12852;SDS011;6495;51.808;7.478;2024-02-21T12:11:21;3.25;;;2.08;;
12852;SDS011;6495;51.808;7.478;2024-02-21T12:14:01;3.10;;;2.25;;
12852;SDS011;6495;51.808;7.478;2024-02-21T12:16:32;5.18;;;2.08;;
12852;SDS011;6495;51.808;7.478;2024-02-21T12:19:01;5.82;;;2.60;;
12852;SDS011;6495;51.808;7.478;2024-02-21T12:21:30;4.63;;;2.33;;
12852;SDS011;6495;51.808;7.478;2024-02-21T12:24:11;3.90;;;2.20;;
12852;SDS011;6495;51.808;7.478;2024-02-21T12:26:40;3.33;;;2.33;;
12852;SDS011;6495;51.808;7.478;2024-02-21T12:29:10;4.75;;;2.38;;
12852;SDS011;6495;51.808;7.478;2024-02-21T12:31:39;5.35;;;2.67;;
12852;SDS011;6495;51.808;7.478;2024-02-21T12:34:08;5.63;;;2.50;;
12852;SDS011;6495;51.808;7.478;2024-02-21T12:36:40;3.08;;;2.22;;
12852;SDS011;6495;51.808;7.478;2024-02-21T12:39:10;6.68;;;2.60;;
12852;SDS011;6495;51.808;7.478;2024-02-21T12:41:39;3.80;;;2.25;;
12852;SDS011;6495;51.808;7.478;2024-02-21T12:44:10;5.30;;;2.92;;
12852;SDS011;6495;51.808;7.478;2024-02-21T12:46:39;5.35;;;2.40;;
12852;SDS011;6495;51.808;7.478;2024-02-21T12:49:08;4.15;;;2.60;;
12852;SDS011;6495;51.808;7.478;2024-02-21T12:51:37;5.63;;;3.08;;
12852;SDS011;6495;51.808;7.478;2024-02-21T12:54:08;5.65;;;3.45;;
12852;SDS011;6495;51.808;7.478;2024-02-21T12:56:37;5.38;;;2.83;;
12852;SDS011;6495;51.808;7.478;2024-02-21T12:59:06;6.55;;;2.90;;
12852;SDS011;6495;51.808;7.478;2024-02-21T13:01:39;4.22;;;2.25;;
12852;SDS011;6495;51.808;7.478;2024-02-21T13:04:07;5.57;;;3.53;;
12852;SDS011;6495;51.808;7.478;2024-02-21T13:06:47;6.80;;;3.22;;
12852;SDS011;6495;51.808;7.478;2024-02-21T13:09:25;8.10;;;3.33;;
12852;SDS011;6495;51.808;7.478;2024-02-21T13:11:53;6.13;;;3.05;;
12852;SDS011;6495;51.808;7.478;2024-02-21T13:14:22;5.57;;;3.47;;
12852;SDS011;6495;51.808;7.478;2024-02-21T13:16:52;4.95;;;3.30;;
12852;SDS011;6495;51.808;7.478;2024-02-21T13:19:21;4.85;;;2.33;;
12852;SDS011;6495;51.808;7.478;2024-02-21T13:21:49;6.55;;;2.85;;
12852;SDS011;6495;51.808;7.478;2024-02-21T13:24:18;7.50;;;2.85;;
12852;SDS011;6495;51.808;7.478;2024-02-21T13:26:46;5.18;;;2.70;;
12852;SDS011;6495;51.808;7.478;2024-02-21T13:29:14;5.95;;;3.35;;
12852;SDS011;6495;51.808;7.478;2024-02-21T13:31:43;5.20;;;3.20;;
12852;SDS011;6495;51.808;7.478;2024-02-21T13:34:13;9.23;;;3.40;;
12852;SDS011;6495;51.808;7.478;2024-02-21T13:36:42;4.38;;;2.58;;
12852;SDS011;6495;51.808;7.478;2024-02-21T13:39:10;5.78;;;2.60;;
12852;SDS011;6495;51.808;7.478;2024-02-21T13:41:41;4.50;;;2.22;;
12852;SDS011;6495;51.808;7.478;2024-02-21T13:44:10;4.78;;;2.47;;
12852;SDS011;6495;51.808;7.478;2024-02-21T13:46:39;6.68;;;2.50;;
12852;SDS011;6495;51.808;7.478;2024-02-21T13:49:08;5.97;;;2.38;;
12852;SDS011;6495;51.808;7.478;2024-02-21T13:51:38;6.28;;;2.65;;
12852;SDS011;6495;51.808;7.478;2024-02-21T13:54:07;4.78;;;2.33;;
12852;SDS011;6495;51.808;7.478;2024-02-21T13:56:36;6.40;;;2.35;;
12852;SDS011;6495;51.808;7.478;2024-02-21T13:59:04;6.00;;;2.17;;
12852;SDS011;6495;51.808;7.478;2024-02-21T14:01:33;5.18;;;2.30;;
12852;SDS011;6495;51.808;7.478;2024-02-21T14:04:08;3.88;;;1.70;;
12852;SDS011;6495;51.808;7.478;2024-02-21T14:06:38;3.95;;;2.15;;
12852;SDS011;6495;51.808;7.478;2024-02-21T14:09:10;13.32;;;2.30;;
12852;SDS011;6495;51.808;7.478;2024-02-21T14:11:39;3.50;;;1.88;;
12852;SDS011;6495;51.808;7.478;2024-02-21T14:14:09;3.13;;;1.65;;
12852;SDS011;6495;51.808;7.478;2024-02-21T14:16:37;4.18;;;1.90;;
12852;SDS011;6495;51.808;7.478;2024-02-21T14:19:06;4.10;;;1.67;;
12852;SDS011;6495;51.808;7.478;2024-02-21T14:21:36;4.40;;;1.80;;
12852;SDS011;6495;51.808;7.478;2024-02-21T14:24:06;4.57;;;2.08;;
12852;SDS011;6495;51.808;7.478;2024-02-21T14:26:35;3.60;;;1.73;;
12852;SDS011;6495;51.808;7.478;2024-02-21T14:29:03;6.65;;;1.83;;
12852;SDS011;6495;51.808;7.478;2024-02-21T14:31:32;3.58;;;1.88;;
12852;SDS011;6495;51.808;7.478;2024-02-21T14:34:01;4.22;;;1.63;;
12852;SDS011;6495;51.808;7.478;2024-02-21T14:36:30;3.30;;;1.85;;
12852;SDS011;6495;51.808;7.478;2024-02-21T14:38:59;4.00;;;1.48;;
12852;SDS011;6495;51.808;7.478;2024-02-21T14:41:29;4.65;;;1.58;;
12852;SDS011;6495;51.808;7.478;2024-02-21T14:44:00;3.05;;;1.70;;
12852;SDS011;6495;51.808;7.478;2024-02-21T14:46:30;2.78;;;1.77;;
12852;SDS011;6495;51.808;7.478;2024-02-21T14:48:59;3.47;;;2.00;;
12852;SDS011;6495;51.808;7.478;2024-02-21T14:51:29;7.38;;;1.90;;
12852;SDS011;6495;51.808;7.478;2024-02-21T14:53:58;3.47;;;1.65;;
12852;SDS011;6495;51.808;7.478;2024-02-21T14:56:26;4.10;;;2.13;;
12852;SDS011;6495;51.808;7.478;2024-02-21T14:58:56;4.00;;;1.95;;
12852;SDS011;6495;51.808;7.478;2024-02-21T15:01:36;3.90;;;2.03;;
12852;SDS011;6495;51.808;7.478;2024-02-21T15:04:06;3.85;;;1.58;;
12852;SDS011;6495;51.808;7.478;2024-02-21T15:06:35;9.70;;;1.70;;
12852;SDS011;6495;51.808;7.478;2024-02-21T15:09:06;4.35;;;1.98;;
12852;SDS011;6495;51.808;7.478;2024-02-21T15:11:35;2.83;;;1.90;;
12852;SDS011;6495;51.808;7.478;2024-02-21T15:14:05;6.43;;;2.10;;
12852;SDS011;6495;51.808;7.478;2024-02-21T15:16:34;5.60;;;2.30;;
12852;SDS011;6495;51.808;7.478;2024-02-21T15:19:03;2.40;;;1.85;;
12852;SDS011;6495;51.808;7.478;2024-02-21T15:21:32;2.22;;;1.80;;
12852;SDS011;6495;51.808;7.478;2024-02-21T15:24:00;7.53;;;2.03;;
12852;SDS011;6495;51.808;7.478;2024-02-21T15:26:30;5.18;;;2.25;;
12852;SDS011;6495;51.808;7.478;2024-02-21T15:29:03;5.88;;;1.98;;
12852;SDS011;6495;51.808;7.478;2024-02-21T15:31:34;6.53;;;2.65;;
12852;SDS011;6495;51.808;7.478;2024-02-21T15:34:04;5.30;;;2.17;;
12852;SDS011;6495;51.808;7.478;2024-02-21T15:36:33;7.80;;;2.30;;
12852;SDS011;6495;51.808;7.478;2024-02-21T15:39:04;3.20;;;1.58;;
12852;SDS011;6495;51.808;7.478;2024-02-21T15:41:34;3.55;;;1.98;;
12852;SDS011;6495;51.808;7.478;2024-02-21T15:44:03;3.28;;;1.77;;
12852;SDS011;6495;51.808;7.478;2024-02-21T15:46:46;3.00;;;1.73;;
12852;SDS011;6495;51.808;7.478;2024-02-21T15:52:41;3.38;;;2.05;;
12852;SDS011;6495;51.808;7.478;2024-02-21T16:05:42;1.75;;;1.50;;
12852;SDS011;6495;51.808;7.478;2024-02-21T16:11:10;6.00;;;2.40;;
12852;SDS011;6495;51.808;7.478;2024-02-21T16:13:48;2.28;;;1.65;;
12852;SDS011;6495;51.808;7.478;2024-02-21T16:16:18;7.70;;;2.25;;